Time;durP1;ratioP1;P1;durP2;ratioP2;P2;SDS_P1;SDS_P2;PMS_P1;PMS_P2;Temp;Humidity;BMP_temperature;BMP_pressure;BME280_temperature;BME280_humidity;BME280_pressure;Samples;Min_cycle;Max_cycle;Signal;HPM_P1;HPM_P2
2023/10/21 00:00:27;;;;;;;6.92;4.78;;;;;;;18.30;48.93;98504.59;2299260;75;50896;-73
2023/10/21 00:03:29;;;;;;;6.60;4.55;;;;;;;18.32;48.91;98510.55;2299408;76;50455;-73
2023/10/21 00:06:31;;;;;;;6.37;4.53;;;;;;;18.40;48.76;98522.77;2338495;76;50397;-73
2023/10/21 00:09:33;;;;;;;7.78;4.80;;;;;;;18.42;48.70;98543.41;2284952;76;49999;-73
2023/10/21 00:12:37;;;;;;;6.55;4.80;;;;;;;18.40;48.74;98528.12;2338137;76;50641;-73
2023/10/21 00:15:41;;;;;;;6.55;4.55;;;;;;;18.31;48.89;98545.03;2313375;76;51793;-73
2023/10/21 00:18:43;;;;;;;6.35;4.25;;;;;;;18.31;48.92;98549.58;2314040;76;51059;-73
2023/10/21 00:21:45;;;;;;;6.87;4.92;;;;;;;18.26;48.99;98545.76;2314085;76;51852;-73
2023/10/21 00:24:47;;;;;;;5.83;4.30;;;;;;;18.23;49.04;98548.88;2338955;75;52144;-72
2023/10/21 00:27:49;;;;;;;7.05;4.67;;;;;;;18.16;49.17;98544.17;2338783;76;50307;-73
2023/10/21 00:30:51;;;;;;;6.03;4.50;;;;;;;18.17;49.14;98543.12;2313004;76;50262;-73
2023/10/21 00:33:54;;;;;;;5.12;3.72;;;;;;;18.19;49.13;98537.02;2299208;76;50208;-71
2023/10/21 00:36:56;;;;;;;7.40;4.72;;;;;;;18.20;49.11;98524.44;2300345;76;50616;-72
2023/10/21 00:39:58;;;;;;;6.33;4.67;;;;;;;18.27;49.00;98515.25;2300932;76;51171;-73
2023/10/21 00:43:00;;;;;;;6.70;4.40;;;;;;;18.32;48.89;98523.92;2299595;76;50922;-73
2023/10/21 00:46:16;;;;;;;5.87;4.12;;;;;;;18.42;48.71;98536.20;2327032;75;50361;-72
2023/10/21 00:49:19;;;;;;;6.83;4.62;;;;;;;18.43;48.70;98521.76;2301948;75;50178;-73
2023/10/21 00:52:21;;;;;;;5.83;4.65;;;;;;;18.48;48.55;98535.80;2326351;75;50620;-72
2023/10/21 00:55:23;;;;;;;6.90;4.53;;;;;;;18.50;48.55;98546.56;2326541;75;51664;-72
2023/10/21 00:58:31;;;;;;;6.28;4.42;;;;;;;18.48;48.58;98546.50;2300169;75;50568;-72
2023/10/21 01:01:30;;;;;;;5.30;4.10;;;;;;;18.44;48.67;98558.19;2299942;76;22680;-74
2023/10/21 01:04:33;;;;;;;6.53;4.50;;;;;;;18.38;48.78;98552.44;2324787;76;52465;-73
2023/10/21 01:07:35;;;;;;;7.33;4.67;;;;;;;18.34;48.86;98545.09;2325904;76;51502;-73
2023/10/21 01:10:37;;;;;;;6.22;4.25;;;;;;;18.30;48.97;98550.11;2325607;74;51405;-73
2023/10/21 01:13:42;;;;;;;5.87;4.55;;;;;;;18.28;49.04;98568.27;2273247;76;52398;-73
2023/10/21 01:16:43;;;;;;;5.85;4.30;;;;;;;18.24;49.07;98575.14;2325713;76;23268;-74
2023/10/21 01:19:46;;;;;;;6.28;4.70;;;;;;;18.28;49.05;98577.63;2299127;76;50014;-73
2023/10/21 01:22:48;;;;;;;5.92;4.40;;;;;;;18.38;48.85;98574.39;2298348;76;50698;-73
2023/10/21 01:25:50;;;;;;;5.65;4.25;;;;;;;18.38;48.82;98588.58;2298202;76;51339;-73
2023/10/21 01:28:52;;;;;;;5.53;4.20;;;;;;;18.43;48.75;98573.16;2299262;76;51705;-73
2023/10/21 01:31:55;;;;;;;7.22;4.80;;;;;;;18.43;48.69;98560.59;2325584;76;50640;-73
2023/10/21 01:34:57;;;;;;;6.05;4.20;;;;;;;18.45;48.67;98556.34;2301672;76;50299;-73
2023/10/21 01:37:59;;;;;;;6.70;4.78;;;;;;;18.38;48.77;98559.13;2277452;76;51363;-73
2023/10/21 01:41:01;;;;;;;6.22;4.35;;;;;;;18.32;48.94;98575.33;2327540;76;51443;-72
2023/10/21 01:44:03;;;;;;;5.60;4.45;;;;;;;18.31;48.96;98573.67;2302880;76;51361;-72
2023/10/21 01:47:06;;;;;;;6.33;4.45;;;;;;;18.24;49.09;98577.29;2274542;76;50617;-73
2023/10/21 01:50:09;;;;;;;5.80;4.37;;;;;;;18.20;49.15;98579.31;2327381;76;51579;-73
2023/10/21 01:53:11;;;;;;;5.83;4.20;;;;;;;18.17;49.23;98578.45;2249573;76;51728;-73
2023/10/21 01:56:13;;;;;;;6.05;4.30;;;;;;;18.18;49.25;98561.33;2274708;76;51553;-73
2023/10/21 01:59:16;;;;;;;5.75;4.20;;;;;;;18.25;49.13;98559.36;2303133;76;52078;-73
2023/10/21 02:02:18;;;;;;;5.65;4.12;;;;;;;18.25;49.16;98559.36;2285008;76;51669;-73
2023/10/21 02:05:20;;;;;;;6.45;4.22;;;;;;;18.32;49.01;98558.73;2289746;76;51574;-73
2023/10/21 02:08:23;;;;;;;5.25;4.03;;;;;;;18.41;48.83;98555.17;2287481;77;50293;-74
2023/10/21 02:11:25;;;;;;;5.53;3.67;;;;;;;18.45;48.73;98557.16;2261878;76;50630;-74
2023/10/21 02:14:27;;;;;;;7.17;4.25;;;;;;;18.52;48.63;98564.25;2259657;77;50375;-74
2023/10/21 02:17:29;;;;;;;5.72;4.28;;;;;;;18.52;48.57;98560.23;2235502;75;51081;-73
2023/10/21 02:20:32;;;;;;;7.22;4.12;;;;;;;18.54;48.55;98571.53;2261797;77;50397;-73
2023/10/21 02:23:34;;;;;;;6.75;4.72;;;;;;;18.45;48.72;98570.55;2259812;77;51439;-72
2023/10/21 02:26:37;;;;;;;6.42;4.15;;;;;;;18.45;48.71;98583.13;2235410;77;52439;-73
2023/10/21 02:29:39;;;;;;;5.90;4.40;;;;;;;18.40;48.86;98584.34;2287332;75;50672;-73
2023/10/21 02:32:45;;;;;;;5.60;4.00;;;;;;;18.34;48.96;98591.45;2284711;76;51425;-72
2023/10/21 02:35:53;;;;;;;5.50;4.10;;;;;;;18.28;49.06;98589.15;2298038;76;51578;-73
2023/10/21 02:38:56;;;;;;;5.58;4.20;;;;;;;18.30;49.07;98602.84;2323931;76;51554;-74
2023/10/21 02:41:58;;;;;;;5.65;4.20;;;;;;;18.32;48.98;98600.23;2272564;76;51060;-73
2023/10/21 02:45:00;;;;;;;5.87;4.00;;;;;;;18.35;48.95;98611.00;2297622;76;50092;-73
2023/10/21 02:48:03;;;;;;;5.87;3.72;;;;;;;18.38;48.91;98615.36;2324316;76;50597;-73
2023/10/21 02:51:17;;;;;;;6.97;4.70;;;;;;;18.44;48.82;98622.45;2297931;76;51349;-73
2023/10/21 02:54:19;;;;;;;5.92;4.33;;;;;;;18.47;48.73;98633.23;2298017;76;50664;-73
2023/10/21 02:57:21;;;;;;;5.05;3.75;;;;;;;18.47;48.71;98639.42;2298066;76;51452;-73
2023/10/21 03:00:23;;;;;;;6.22;4.40;;;;;;;18.44;48.76;98643.87;2322447;76;51540;-73
2023/10/21 03:03:26;;;;;;;5.50;4.05;;;;;;;18.37;48.92;98643.69;2322818;75;51456;-73
2023/10/21 03:06:29;;;;;;;7.58;4.55;;;;;;;18.31;49.05;98638.73;2338503;76;51443;-72
2023/10/21 03:09:31;;;;;;;6.10;4.40;;;;;;;18.29;49.09;98639.52;2314112;76;51702;-73
2023/10/21 03:12:33;;;;;;;5.92;4.12;;;;;;;18.23;49.21;98640.41;2338247;76;51425;-73
2023/10/21 03:15:35;;;;;;;6.17;4.45;;;;;;;18.20;49.26;98635.53;2340152;75;52481;-74
2023/10/21 03:18:38;;;;;;;6.20;4.12;;;;;;;18.17;49.31;98631.98;2313788;76;51325;-73
2023/10/21 03:21:40;;;;;;;6.53;4.60;;;;;;;18.22;49.25;98633.45;2338415;76;51582;-73
2023/10/21 03:24:42;;;;;;;5.50;3.87;;;;;;;18.26;49.20;98641.29;2302841;76;51464;-73
2023/10/21 03:27:45;;;;;;;5.60;4.05;;;;;;;18.35;49.05;98660.00;2326227;75;51602;-73
2023/10/21 03:30:48;;;;;;;4.92;4.12;;;;;;;18.49;48.73;98659.26;2284287;76;51013;-73
2023/10/21 03:33:51;;;;;;;5.47;4.15;;;;;;;18.49;48.74;98653.38;2294908;77;51612;-74
2023/10/21 03:36:53;;;;;;;5.70;4.05;;;;;;;18.55;48.64;98661.03;2285200;78;50326;-72
2023/10/21 03:39:56;;;;;;;5.78;3.80;;;;;;;18.53;48.65;98655.09;2235029;78;50067;-73
2023/10/21 03:42:58;;;;;;;6.33;4.10;;;;;;;18.54;48.65;98656.70;2259227;78;50316;-73
2023/10/21 03:46:05;;;;;;;6.47;4.40;;;;;;;18.48;48.76;98654.96;2259303;78;50343;-74
2023/10/21 03:49:07;;;;;;;5.53;4.33;;;;;;;18.46;48.81;98667.77;2233505;78;50195;-73
2023/10/21 03:52:10;;;;;;;5.53;4.35;;;;;;;18.38;48.95;98659.53;2284991;77;50767;-74
2023/10/21 03:55:12;;;;;;;5.17;4.17;;;;;;;18.36;48.98;98659.48;2284631;77;52503;-74
2023/10/21 03:58:14;;;;;;;7.03;4.53;;;;;;;18.33;49.06;98649.23;2233672;78;51593;-74
2023/10/21 04:01:16;;;;;;;6.85;4.60;;;;;;;18.30;49.11;98646.49;2265678;76;51434;-73
2023/10/21 04:04:19;;;;;;;6.08;4.12;;;;;;;18.29;49.12;98650.22;2281350;76;52546;-72
2023/10/21 04:07:21;;;;;;;5.20;3.92;;;;;;;18.31;49.12;98647.30;2303198;76;51546;-73
2023/10/21 04:10:24;;;;;;;5.83;3.90;;;;;;;18.44;48.85;98649.77;2327355;76;50630;-73
2023/10/21 04:13:26;;;;;;;5.90;4.20;;;;;;;18.44;48.83;98646.55;2302724;76;51541;-73
2023/10/21 04:16:28;;;;;;;5.28;3.98;;;;;;;18.39;48.94;98640.27;2277480;76;50733;-73
2023/10/21 04:19:31;;;;;;;7.05;4.70;;;;;;;18.40;48.93;98648.08;2277426;76;51293;-72
2023/10/21 04:22:33;;;;;;;5.47;4.08;;;;;;;18.39;48.95;98654.47;2327207;76;50287;-73
2023/10/21 04:25:35;;;;;;;6.00;4.25;;;;;;;18.37;48.97;98652.56;2303066;76;50278;-74
2023/10/21 04:28:37;;;;;;;6.28;4.25;;;;;;;18.30;49.09;98657.20;2302773;76;51643;-73
2023/10/21 04:31:40;;;;;;;5.65;4.47;;;;;;;18.24;49.24;98673.66;2326530;76;51542;-73
2023/10/21 04:34:42;;;;;;;5.28;4.15;;;;;;;18.24;49.24;98658.13;2299271;76;51675;-73
2023/10/21 04:37:44;;;;;;;5.58;3.98;;;;;;;18.20;49.29;98658.28;2299542;76;51558;-73
2023/10/21 04:40:46;;;;;;;5.05;4.20;;;;;;;18.19;49.36;98662.02;2326218;76;50641;-73
2023/10/21 04:43:50;;;;;;;6.08;4.17;;;;;;;18.22;49.30;98670.92;2274128;76;51691;-73
2023/10/21 04:46:52;;;;;;;4.78;4.05;;;;;;;18.28;49.24;98682.04;2326187;76;50508;-73
2023/10/21 04:49:55;;;;;;;6.37;4.30;;;;;;;18.33;49.17;98675.48;2299477;76;50732;-73
2023/10/21 04:52:57;;;;;;;6.10;4.40;;;;;;;18.45;48.85;98664.27;2274039;76;51221;-74
2023/10/21 04:56:00;;;;;;;5.65;4.47;;;;;;;18.46;48.85;98677.94;2326150;74;50394;-74
2023/10/21 04:59:02;;;;;;;6.65;4.37;;;;;;;18.52;48.75;98675.39;2299454;76;50650;-74
2023/10/21 05:02:05;;;;;;;6.78;4.70;;;;;;;18.59;48.63;98686.82;2286352;76;50298;-73
2023/10/21 05:05:07;;;;;;;5.58;3.98;;;;;;;18.55;48.67;98677.60;2288958;76;51573;-72
2023/10/21 05:08:09;;;;;;;5.50;4.22;;;;;;;18.47;48.82;98680.94;2272239;76;52374;-73
2023/10/21 05:11:12;;;;;;;5.33;4.10;;;;;;;18.42;48.94;98690.17;2271415;76;50342;-73
2023/10/21 05:14:14;;;;;;;4.80;4.05;;;;;;;18.39;49.03;98685.78;2324050;76;51437;-72
2023/10/21 05:17:17;;;;;;;5.35;4.20;;;;;;;18.33;49.12;98688.86;2272061;76;52565;-72
2023/10/21 05:20:19;;;;;;;6.08;4.37;;;;;;;18.31;49.17;98670.87;2298081;76;50694;-72
2023/10/21 05:23:21;;;;;;;6.12;4.30;;;;;;;18.31;49.16;98668.19;2297727;76;51206;-72
2023/10/21 05:26:23;;;;;;;5.40;4.25;;;;;;;18.30;49.19;98678.62;2297828;76;51046;-72
2023/10/21 05:29:26;;;;;;;5.37;4.08;;;;;;;18.33;49.16;98699.57;2324312;76;51573;-73
2023/10/21 05:32:29;;;;;;;6.05;4.40;;;;;;;18.39;49.05;98709.36;2296978;76;50306;-73
2023/10/21 05:35:32;;;;;;;5.53;4.10;;;;;;;18.48;48.81;98713.35;2299631;76;50243;-72
2023/10/21 05:38:34;;;;;;;5.50;4.33;;;;;;;18.47;48.81;98703.70;2298032;76;51591;-72
2023/10/21 05:41:36;;;;;;;6.08;4.17;;;;;;;18.40;48.95;98692.27;2297877;76;51491;-72
2023/10/21 05:44:38;;;;;;;5.30;4.05;;;;;;;18.40;48.94;98688.77;2324049;76;51452;-73
2023/10/21 05:47:40;;;;;;;5.65;4.12;;;;;;;18.34;49.07;98695.88;2324305;76;51477;-73
2023/10/21 05:50:43;;;;;;;4.97;3.77;;;;;;;18.30;49.20;98713.42;2298131;76;51466;-72
2023/10/21 05:53:45;;;;;;;5.40;4.12;;;;;;;18.26;49.27;98722.94;2324193;76;51530;-72
2023/10/21 05:56:47;;;;;;;4.80;4.05;;;;;;;18.19;49.40;98716.36;2272616;76;51122;-73
2023/10/21 05:59:49;;;;;;;5.33;4.20;;;;;;;18.18;49.40;98721.93;2297950;76;50624;-73
2023/10/21 06:02:52;;;;;;;5.40;4.33;;;;;;;18.18;49.42;98737.46;2325323;75;51412;-74
2023/10/21 06:05:54;;;;;;;4.87;3.90;;;;;;;18.23;49.36;98741.61;2272438;76;50965;-73
2023/10/21 06:08:57;;;;;;;5.25;3.98;;;;;;;18.32;49.23;98746.14;2298420;76;50273;-74
2023/10/21 06:12:00;;;;;;;5.40;4.08;;;;;;;18.41;48.97;98752.80;2271734;76;50781;-73
2023/10/21 06:15:02;;;;;;;5.35;4.17;;;;;;;18.45;48.95;98760.67;2324260;76;50735;-72
2023/10/21 06:18:04;;;;;;;5.97;4.22;;;;;;;18.47;48.92;98763.11;2324394;76;51495;-73
2023/10/21 06:21:07;;;;;;;5.20;4.00;;;;;;;18.53;48.79;98750.69;2272232;76;52616;-74
2023/10/21 06:24:09;;;;;;;5.08;4.00;;;;;;;18.51;48.82;98742.87;2297514;76;51502;-74
2023/10/21 06:27:12;;;;;;;5.80;4.37;;;;;;;18.56;48.75;98747.55;2271419;76;50579;-74
2023/10/21 06:30:14;;;;;;;4.87;3.85;;;;;;;18.52;48.78;98753.06;2272133;76;50253;-74
2023/10/21 06:33:16;;;;;;;5.67;4.37;;;;;;;18.47;48.89;98756.42;2321759;76;51564;-74
2023/10/21 06:36:18;;;;;;;4.95;4.10;;;;;;;18.44;48.94;98768.40;2297769;76;50314;-73
2023/10/21 06:39:21;;;;;;;5.00;3.83;;;;;;;18.41;49.05;98762.69;2298004;76;50341;-73
2023/10/21 06:42:23;;;;;;;4.87;4.08;;;;;;;18.36;49.09;98764.71;2297915;76;50383;-73
2023/10/21 06:45:25;;;;;;;6.05;4.40;;;;;;;18.35;49.15;98777.81;2323604;76;52699;-73
2023/10/21 06:48:29;;;;;;;6.70;4.20;;;;;;;18.31;49.23;98779.30;2271315;76;51431;-74
2023/10/21 06:51:31;;;;;;;5.35;3.83;;;;;;;18.36;49.15;98778.09;2324375;76;50765;-73
2023/10/21 06:54:33;;;;;;;5.17;3.70;;;;;;;18.42;49.12;98779.88;2297883;76;50341;-72
2023/10/21 06:57:36;;;;;;;5.10;4.22;;;;;;;18.48;48.95;98784.32;2297935;76;50384;-73
2023/10/21 07:00:38;;;;;;;5.60;3.95;;;;;;;18.50;48.83;98787.59;2298150;76;50677;-74
2023/10/21 07:03:41;;;;;;;5.33;3.85;;;;;;;18.49;48.84;98793.97;2300078;76;51526;-73
2023/10/21 07:06:45;;;;;;;5.65;4.20;;;;;;;18.42;49.03;98797.79;2299715;76;51419;-73
2023/10/21 07:09:47;;;;;;;5.70;4.30;;;;;;;18.37;49.15;98794.48;2326707;76;22999;-73
2023/10/21 07:12:51;;;;;;;5.03;3.85;;;;;;;18.38;49.13;98811.36;2299687;76;51487;-74
2023/10/21 07:15:53;;;;;;;6.67;4.03;;;;;;;18.31;49.24;98822.14;2327245;76;51518;-74
2023/10/21 07:18:57;;;;;;;4.78;3.95;;;;;;;18.26;49.36;98831.36;2300145;76;51798;-73
2023/10/21 07:21:59;;;;;;;4.55;4.00;;;;;;;18.28;49.37;98826.61;2302661;76;50311;-73
2023/10/21 07:25:01;;;;;;;5.30;3.92;;;;;;;18.27;49.38;98827.66;2298032;76;50718;-74
2023/10/21 07:28:04;;;;;;;5.03;3.75;;;;;;;18.30;49.34;98821.85;2301904;76;49742;-74
2023/10/21 07:31:06;;;;;;;5.55;3.90;;;;;;;18.37;49.22;98829.28;2301255;76;50055;-74
2023/10/21 07:34:11;;;;;;;5.50;4.10;;;;;;;18.47;49.01;98826.05;2289545;77;50393;-73
2023/10/21 07:37:13;;;;;;;5.45;3.95;;;;;;;18.46;49.07;98838.62;2265043;77;22411;-74
2023/10/21 07:40:15;;;;;;;4.67;3.77;;;;;;;18.53;48.93;98835.06;2263507;77;50599;-74
2023/10/21 07:43:20;;;;;;;5.28;4.10;;;;;;;18.57;48.85;98842.92;2262092;77;51576;-74
2023/10/21 07:46:22;;;;;;;4.70;3.90;;;;;;;18.55;48.87;98834.28;2261939;76;50701;-74
2023/10/21 07:49:24;;;;;;;5.37;4.05;;;;;;;18.47;49.01;98843.45;2287682;77;51627;-74
2023/10/21 07:52:26;;;;;;;5.47;4.22;;;;;;;18.46;49.06;98835.95;2286702;76;50120;-74
2023/10/21 07:55:28;;;;;;;6.22;4.78;;;;;;;18.41;49.14;98849.20;2261831;77;50713;-74
2023/10/21 07:58:31;;;;;;;6.65;4.50;;;;;;;18.38;49.26;98847.50;2261717;77;50096;-73
2023/10/21 08:01:33;;;;;;;6.75;4.97;;;;;;;18.36;49.29;98841.55;2286283;74;49593;-74
2023/10/21 08:04:36;;;;;;;5.05;4.03;;;;;;;18.33;49.35;98848.17;2271344;76;50265;-73
2023/10/21 08:07:38;;;;;;;6.25;4.42;;;;;;;18.37;49.26;98853.38;2273447;76;50288;-73
2023/10/21 08:10:40;;;;;;;5.55;4.20;;;;;;;18.38;49.31;98861.70;2299624;76;50631;-74
2023/10/21 08:13:42;;;;;;;6.83;4.70;;;;;;;18.50;49.07;98863.92;2299561;76;51492;-74
2023/10/21 08:16:46;;;;;;;5.50;4.25;;;;;;;18.50;49.04;98869.28;2248709;76;51224;-73
2023/10/21 08:19:48;;;;;;;6.12;4.72;;;;;;;18.55;49.00;98877.14;2299704;76;51657;-74
2023/10/21 08:22:51;;;;;;;6.35;4.47;;;;;;;18.53;49.01;98880.59;2299508;76;50133;-74
2023/10/21 08:25:53;;;;;;;6.00;4.62;;;;;;;18.47;49.12;98883.63;2273690;76;51578;-74
2023/10/21 08:28:56;;;;;;;7.15;5.05;;;;;;;18.43;49.21;98883.80;2299733;76;51165;-74
2023/10/21 08:31:58;;;;;;;5.75;4.20;;;;;;;18.44;49.22;98888.91;2325709;76;50132;-74
2023/10/21 08:35:00;;;;;;;5.90;4.35;;;;;;;18.35;49.43;98890.27;2325681;76;50221;-75
2023/10/21 08:38:02;;;;;;;6.15;4.75;;;;;;;18.31;49.52;98894.95;2299551;75;50395;-74
2023/10/21 08:41:06;;;;;;;5.40;4.30;;;;;;;18.28;49.60;98900.23;2274605;76;51117;-75
2023/10/21 08:44:09;;;;;;;6.28;4.80;;;;;;;18.30;49.58;98894.14;2299805;76;51715;-74
2023/10/21 08:47:11;;;;;;;5.70;4.47;;;;;;;18.42;49.39;98902.23;2299678;75;50828;-74
2023/10/21 08:50:14;;;;;;;7.00;4.95;;;;;;;18.45;49.32;98903.95;2299529;76;52353;-74
2023/10/21 08:53:16;;;;;;;5.92;4.33;;;;;;;18.48;49.26;98915.55;2299379;75;51413;-74
2023/10/21 08:56:18;;;;;;;6.80;5.25;;;;;;;18.56;49.12;98910.94;2299589;76;50248;-74
2023/10/21 08:59:20;;;;;;;6.45;4.80;;;;;;;18.55;49.14;98915.98;2326236;75;50358;-74
2023/10/21 09:02:25;;;;;;;6.67;4.97;;;;;;;18.53;49.15;98923.45;2299984;76;50655;-74
2023/10/21 09:05:27;;;;;;;6.83;4.80;;;;;;;18.50;49.21;98922.84;2286904;76;22284;-74
2023/10/21 09:08:32;;;;;;;7.22;4.47;;;;;;;18.46;49.30;98917.63;2261711;77;50264;-74
2023/10/21 09:11:34;;;;;;;6.12;4.60;;;;;;;18.45;49.33;98922.70;2287416;77;50666;-75
2023/10/21 09:14:55;;;;;;;6.35;4.40;;;;;;;18.39;49.45;98923.58;2261579;77;50598;-74
2023/10/21 09:17:58;;;;;;;6.78;4.50;;;;;;;18.37;49.50;98923.00;2287854;77;22216;-74
2023/10/21 09:21:00;;;;;;;6.70;4.60;;;;;;;18.36;49.56;98938.75;2261896;77;51507;-74
2023/10/21 09:24:04;;;;;;;6.60;4.30;;;;;;;18.40;49.53;98938.62;2261407;77;51485;-74
2023/10/21 09:27:07;;;;;;;7.15;5.17;;;;;;;18.45;49.43;98940.11;2287452;76;51594;-74
2023/10/21 09:30:17;;;;;;;6.72;4.87;;;;;;;18.53;49.26;98939.52;2236991;77;51202;-74
2023/10/21 09:33:20;;;;;;;6.28;4.47;;;;;;;18.49;49.35;98941.28;2323270;76;51479;-73
2023/10/21 09:36:22;;;;;;;7.72;4.67;;;;;;;18.46;49.41;98955.13;2326366;75;50321;-74
2023/10/21 09:39:26;;;;;;;6.65;4.65;;;;;;;18.45;49.41;98944.13;2299191;76;51370;-74
2023/10/21 09:42:28;;;;;;;6.15;4.62;;;;;;;18.42;49.51;98952.61;2326062;75;50328;-74
2023/10/21 09:45:30;;;;;;;6.03;4.45;;;;;;;18.37;49.61;98955.14;2326103;75;50329;-73
2023/10/21 09:48:39;;;;;;;6.05;4.35;;;;;;;18.33;49.70;98956.61;2326296;76;50379;-74
2023/10/21 09:52:04;;;;;;;6.53;4.47;;;;;;;18.28;49.79;98959.95;2326232;75;50766;-74
2023/10/21 09:55:08;;;;;;;6.53;4.73;;;;;;;18.27;49.82;98963.68;2299431;76;51710;-74
2023/10/21 09:58:10;;;;;;;5.78;4.17;;;;;;;18.25;49.92;98972.45;2299788;76;51349;-74
2023/10/21 10:01:12;;;;;;;5.70;3.92;;;;;;;18.31;49.81;98966.72;2328529;75;50657;-74
2023/10/21 10:04:15;;;;;;;5.17;4.05;;;;;;;18.33;49.78;98975.36;2285351;77;52513;-74
2023/10/21 10:07:17;;;;;;;6.78;4.45;;;;;;;18.35;49.71;98974.62;2304441;77;50376;-74
2023/10/21 10:10:22;;;;;;;6.47;4.70;;;;;;;18.36;49.71;98974.91;2304414;77;50338;-74
2023/10/21 10:13:24;;;;;;;6.25;4.50;;;;;;;18.35;49.73;98982.66;2304620;75;50757;-73
2023/10/21 10:16:27;;;;;;;5.87;4.47;;;;;;;18.34;49.75;98974.83;2304882;75;50317;-75
2023/10/21 10:19:40;;;;;;;7.05;4.47;;;;;;;18.29;49.86;98976.86;2228770;77;51116;-74
2023/10/21 10:22:43;;;;;;;6.00;4.50;;;;;;;18.26;49.94;98977.27;2304400;77;50839;-74
2023/10/21 10:25:51;;;;;;;6.92;4.60;;;;;;;18.17;50.10;98982.11;2281306;76;51528;-74
2023/10/21 10:28:52;;;;;;;5.78;4.33;;;;;;;18.17;50.10;98982.63;2281111;77;22153;-74
2023/10/21 10:32:20;;;;;;;5.45;4.28;;;;;;;18.19;50.09;98986.73;2292344;76;51583;-74
2023/10/21 10:35:30;;;;;;;5.95;4.55;;;;;;;18.25;50.04;98989.03;2325709;75;22463;-74
2023/10/21 10:38:37;;;;;;;5.20;4.10;;;;;;;18.35;49.82;98992.02;2300058;76;51524;-74
2023/10/21 10:41:43;;;;;;;5.20;4.30;;;;;;;18.43;49.66;98989.05;2300182;76;50464;-75
2023/10/21 10:44:45;;;;;;;5.28;4.20;;;;;;;18.41;49.72;98987.63;2299152;76;51088;-75
2023/10/21 10:47:47;;;;;;;7.17;4.55;;;;;;;18.39;49.79;98991.05;2326257;75;50642;-75
2023/10/21 10:50:51;;;;;;;5.90;4.40;;;;;;;18.37;49.82;99003.34;2326297;75;51492;-75
2023/10/21 10:54:00;;;;;;;6.33;4.37;;;;;;;18.36;49.84;98998.19;2274329;76;51044;-75
2023/10/21 10:57:03;;;;;;;6.05;4.35;;;;;;;18.33;49.87;99004.80;2326467;76;50395;-74
2023/10/21 11:00:10;;;;;;;5.17;4.22;;;;;;;18.29;49.99;99006.31;2300605;76;51582;-74
2023/10/21 11:03:11;;;;;;;5.30;3.92;;;;;;;18.26;50.05;99017.44;2299069;76;22247;-74
2023/10/21 11:06:13;;;;;;;5.20;4.42;;;;;;;18.22;50.16;99020.27;2326310;75;50698;-74
2023/10/21 11:09:19;;;;;;;6.40;4.33;;;;;;;18.19;50.25;99036.25;2299568;76;50071;-74
2023/10/21 11:12:22;;;;;;;5.78;4.58;;;;;;;18.22;50.23;99035.81;2300375;76;50648;-74
2023/10/21 11:15:24;;;;;;;5.25;4.47;;;;;;;18.26;50.15;99037.02;2299575;76;51578;-74
2023/10/21 11:18:26;;;;;;;6.15;4.33;;;;;;;18.27;50.12;99049.36;2274201;76;52326;-74
2023/10/21 11:21:39;;;;;;;5.90;4.47;;;;;;;18.33;50.03;99057.55;2326402;75;51322;-74
2023/10/21 11:24:40;;;;;;;6.35;4.67;;;;;;;18.26;50.13;99052.23;2326611;75;22030;-74
2023/10/21 11:27:42;;;;;;;6.22;4.17;;;;;;;18.26;50.13;99054.42;2298979;75;50388;-73
2023/10/21 11:30:45;;;;;;;5.50;4.22;;;;;;;18.19;50.27;99059.53;2326406;76;50165;-74
2023/10/21 11:33:47;;;;;;;6.00;4.50;;;;;;;18.16;50.36;99075.52;2328337;76;50225;-74
2023/10/21 11:36:49;;;;;;;5.60;4.12;;;;;;;18.14;50.41;99080.78;2299570;76;50612;-74
2023/10/21 11:39:52;;;;;;;5.20;4.28;;;;;;;18.15;50.41;99074.38;2326424;75;51523;-74
2023/10/21 11:43:01;;;;;;;5.45;4.03;;;;;;;18.17;50.37;99084.36;2299499;76;51252;-74
2023/10/21 11:46:04;;;;;;;5.10;4.15;;;;;;;18.17;50.43;99088.38;2326373;76;50280;-74
2023/10/21 11:49:13;;;;;;;4.90;4.05;;;;;;;18.24;50.34;99097.99;2299954;76;50593;-74
2023/10/21 11:52:11;;;;;;;;;;;;;;;18.26;50.33;99107.13;2329095;75;22234;-74
2023/10/21 12:05:47;;;;;;;4.90;3.83;;;;;;;18.23;50.43;99133.00;2302760;76;22367;-74
2023/10/21 12:09:25;;;;;;;4.47;3.52;;;;;;;18.19;50.48;99145.20;2324752;76;22398;-74
2023/10/21 12:18:12;;;;;;;4.85;3.85;;;;;;;18.17;50.60;99155.30;2272410;76;22380;-74
2023/10/21 12:21:15;;;;;;;4.58;3.67;;;;;;;18.19;50.57;99158.59;2296115;76;22334;-74
2023/10/21 12:37:30;;;;;;;4.62;3.35;;;;;;;18.13;50.77;99178.17;2302389;76;22285;-74
2023/10/21 12:40:36;;;;;;;4.40;3.55;;;;;;;18.10;50.84;99186.64;2278681;76;22777;-73
2023/10/21 12:43:38;;;;;;;3.95;3.30;;;;;;;18.09;50.89;99186.34;2324825;76;22954;-75
2023/10/21 12:46:44;;;;;;;4.15;3.30;;;;;;;18.04;50.96;99189.14;2324374;76;50675;-74
2023/10/21 12:49:50;;;;;;;3.70;3.10;;;;;;;18.10;50.87;99202.70;2272032;76;51562;-74
2023/10/21 12:52:51;;;;;;;4.55;3.83;;;;;;;18.07;51.00;99206.63;2324658;76;22332;-74
2023/10/21 12:55:54;;;;;;;4.92;3.52;;;;;;;18.12;50.92;99199.30;2324437;76;50789;-74
2023/10/21 12:58:56;;;;;;;3.90;3.20;;;;;;;18.11;50.95;99205.17;2323870;76;52520;-74
2023/10/21 13:01:58;;;;;;;3.50;2.92;;;;;;;18.13;50.92;99221.00;2298171;76;50002;-74
2023/10/21 13:05:00;;;;;;;3.87;3.27;;;;;;;18.12;50.94;99218.03;2299016;76;50612;-74
2023/10/21 13:08:07;;;;;;;3.65;3.20;;;;;;;18.10;51.02;99224.11;2274240;76;52579;-74
2023/10/21 13:11:08;;;;;;;4.05;3.35;;;;;;;18.09;51.03;99235.86;2299982;76;22517;-74
2023/10/21 13:14:10;;;;;;;4.12;3.35;;;;;;;18.05;51.09;99233.59;2326169;76;51446;-74
2023/10/21 13:17:12;;;;;;;3.52;3.22;;;;;;;17.96;51.45;99236.23;2326186;76;51517;-74
2023/10/21 13:20:17;;;;;;;3.87;3.12;;;;;;;17.94;51.56;99244.16;2299726;76;51737;-74
2023/10/21 13:23:20;;;;;;;3.67;3.10;;;;;;;17.90;51.66;99250.44;2274889;76;51187;-74
2023/10/21 13:26:22;;;;;;;4.35;3.20;;;;;;;17.97;51.48;99267.82;2299529;76;50399;-74
2023/10/21 13:29:24;;;;;;;3.85;3.08;;;;;;;18.01;51.40;99263.70;2273206;76;50122;-75
2023/10/21 13:32:27;;;;;;;4.35;3.25;;;;;;;18.04;51.32;99268.09;2276068;76;51062;-75
2023/10/21 13:35:30;;;;;;;3.42;2.85;;;;;;;18.06;51.27;99270.05;2261969;77;51587;-74
2023/10/21 13:38:32;;;;;;;3.80;2.80;;;;;;;18.07;51.27;99276.22;2287433;76;51513;-74
2023/10/21 13:41:34;;;;;;;4.30;3.10;;;;;;;18.10;51.20;99283.81;2261739;77;51458;-74
2023/10/21 13:44:36;;;;;;;4.25;3.42;;;;;;;18.08;51.20;99275.17;2261427;77;51541;-74
2023/10/21 13:47:38;;;;;;;3.72;2.90;;;;;;;18.01;51.44;99281.09;2286725;77;52429;-73
2023/10/21 13:50:41;;;;;;;4.20;3.25;;;;;;;17.92;51.76;99282.35;2237250;77;51336;-74
2023/10/21 13:53:43;;;;;;;3.00;2.60;;;;;;;17.84;52.01;99288.77;2237426;77;51454;-74
2023/10/21 13:56:45;;;;;;;3.50;2.85;;;;;;;17.80;52.14;99301.75;2238739;77;51659;-74
2023/10/21 13:59:47;;;;;;;3.40;2.60;;;;;;;17.81;52.07;99299.37;2287686;76;50400;-74
2023/10/21 14:02:50;;;;;;;3.55;2.83;;;;;;;17.91;51.82;99310.97;2325321;75;50702;-73
2023/10/21 14:05:54;;;;;;;3.83;2.95;;;;;;;17.96;51.66;99317.86;2326388;75;50433;-74
2023/10/21 14:08:57;;;;;;;3.75;2.90;;;;;;;18.00;51.60;99319.05;2328014;76;51573;-75
2023/10/21 14:11:59;;;;;;;3.25;2.85;;;;;;;18.00;51.53;99320.39;2299763;75;51484;-74
2023/10/21 14:15:10;;;;;;;3.02;2.60;;;;;;;17.97;51.65;99326.70;2326116;75;51670;-74
2023/10/21 14:18:10;;;;;;;3.70;2.80;;;;;;;17.87;51.98;99327.13;2325343;75;22544;-73
2023/10/21 14:21:12;;;;;;;3.05;2.47;;;;;;;17.83;52.14;99328.08;2301087;76;22233;-73
2023/10/21 14:24:14;;;;;;;3.00;2.60;;;;;;;17.78;52.34;99330.53;2325875;76;50276;-73
2023/10/21 14:27:19;;;;;;;3.52;2.80;;;;;;;17.75;52.43;99326.09;2274461;75;51636;-74
2023/10/21 14:30:20;;;;;;;4.58;2.80;;;;;;;17.73;52.55;99322.84;2327635;74;22367;-74
2023/10/21 14:33:24;;;;;;;2.92;2.60;;;;;;;17.77;52.38;99328.05;2301975;76;51552;-74
2023/10/21 14:36:26;;;;;;;2.45;2.15;;;;;;;17.80;52.31;99337.87;2273845;76;50101;-74
2023/10/21 14:39:29;;;;;;;2.58;2.35;;;;;;;17.93;51.94;99331.66;2326184;76;50890;-74
2023/10/21 14:42:31;;;;;;;3.02;2.45;;;;;;;17.96;51.84;99344.62;2299404;76;51572;-75
2023/10/21 14:45:34;;;;;;;3.45;2.62;;;;;;;17.91;51.99;99341.75;2274055;76;52501;-74
2023/10/21 14:48:37;;;;;;;3.08;2.40;;;;;;;17.86;52.14;99348.25;2299796;76;50379;-74
2023/10/21 14:51:39;;;;;;;2.92;2.35;;;;;;;17.80;52.27;99346.39;2326173;75;51909;-73